Time;durP1;ratioP1;P1;durP2;ratioP2;P2;SDS_P1;SDS_P2;PMS_P1;PMS_P2;Temp;Humidity;BMP_temperature;BMP_pressure;BME280_temperature;BME280_humidity;BME280_pressure;Samples;Min_cycle;Max_cycle;Signal;HPM_P1;HPM_P2
2023/03/20 00:02:26;;;;;;;32.90;18.42;;;;;;;;;;4900649;29;20179;-77
2023/03/20 00:04:51;;;;;;;38.10;19.98;;;;;;;;;;4900221;29;20613;-78
2023/03/20 00:07:18;;;;;;;31.90;20.83;;;;;;;;;;4899287;29;20183;-77
2023/03/20 00:09:44;;;;;;;27.38;18.50;;;;;;;;;;4898938;29;20760;-77
2023/03/20 00:12:14;;;;;;;29.20;19.97;;;;;;;;;;4900598;29;20270;-77
2023/03/20 00:14:40;;;;;;;28.83;19.20;;;;;;;;;;4895294;29;20507;-77
2023/03/20 00:17:11;;;;;;;30.23;19.55;;;;;;;;;;4881743;29;20243;-77
2023/03/20 00:19:37;;;;;;;28.05;21.48;;;;;;;;;;4864417;29;20248;-78
2023/03/20 00:22:03;;;;;;;26.33;18.27;;;;;;;;;;4873777;29;20191;-77
2023/03/20 00:24:29;;;;;;;28.77;20.40;;;;;;;;;;4899890;29;20664;-78
2023/03/20 00:26:55;;;;;;;30.73;20.05;;;;;;;;;;4901435;29;20419;-77
2023/03/20 00:29:21;;;;;;;26.20;18.98;;;;;;;;;;4903947;29;20186;-77
2023/03/20 00:31:47;;;;;;;28.35;19.42;;;;;;;;;;4903772;29;20179;-77
2023/03/20 00:34:15;;;;;;;25.98;18.50;;;;;;;;;;4903587;29;20294;-77
2023/03/20 00:36:41;;;;;;;27.27;19.20;;;;;;;;;;4903625;29;20747;-77
2023/03/20 00:39:07;;;;;;;26.55;17.02;;;;;;;;;;4904448;29;20193;-77
2023/03/20 00:41:53;;;;;;;29.15;19.15;;;;;;;;;;4903854;29;20178;-77
2023/03/20 00:44:33;;;;;;;27.70;19.73;;;;;;;;;;4903883;29;20273;-78
2023/03/20 00:47:00;;;;;;;28.45;18.48;;;;;;;;;;4903881;29;20186;-77
2023/03/20 00:49:31;;;;;;;26.73;18.38;;;;;;;;;;4887030;29;20191;-78
2023/03/20 00:51:57;;;;;;;28.60;19.13;;;;;;;;;;4903378;29;20178;-77
2023/03/20 00:54:24;;;;;;;29.52;18.70;;;;;;;;;;4904043;29;20209;-77
2023/03/20 00:56:58;;;;;;;25.70;18.35;;;;;;;;;;4903408;29;20179;-79
2023/03/20 00:59:26;;;;;;;28.50;18.67;;;;;;;;;;4903541;29;20269;-77
2023/03/20 01:01:52;;;;;;;29.10;19.30;;;;;;;;;;4902965;29;20253;-77
2023/03/20 01:04:19;;;;;;;26.50;18.23;;;;;;;;;;4903733;29;20721;-77
2023/03/20 01:06:45;;;;;;;31.73;19.33;;;;;;;;;;4903326;29;20183;-78
2023/03/20 01:09:11;;;;;;;29.60;19.75;;;;;;;;;;4902965;29;20187;-77
2023/03/20 01:11:38;;;;;;;29.10;18.17;;;;;;;;;;4902868;29;20227;-81
2023/03/20 01:14:05;;;;;;;26.02;19.45;;;;;;;;;;4886500;29;20218;-78
2023/03/20 01:16:31;;;;;;;29.00;18.75;;;;;;;;;;4903196;29;20257;-78
2023/03/20 01:18:57;;;;;;;29.77;19.60;;;;;;;;;;4902262;29;20183;-78
2023/03/20 01:21:23;;;;;;;33.03;21.93;;;;;;;;;;4902585;29;20696;-78
2023/03/20 01:23:49;;;;;;;31.00;18.97;;;;;;;;;;4885801;29;20451;-77
2023/03/20 01:26:21;;;;;;;27.20;18.48;;;;;;;;;;4902968;29;20423;-78
2023/03/20 01:28:47;;;;;;;29.30;19.45;;;;;;;;;;4902921;29;20203;-78
2023/03/20 01:31:14;;;;;;;38.15;20.48;;;;;;;;;;4902989;29;20211;-77
2023/03/20 01:33:40;;;;;;;30.83;19.55;;;;;;;;;;4885666;29;20224;-78
2023/03/20 01:36:09;;;;;;;29.35;19.80;;;;;;;;;;4902767;29;20231;-77
2023/03/20 01:38:35;;;;;;;28.88;19.35;;;;;;;;;;4901489;29;20183;-77
2023/03/20 01:41:03;;;;;;;29.85;21.08;;;;;;;;;;4902429;29;20179;-77
2023/03/20 01:43:29;;;;;;;30.40;19.55;;;;;;;;;;4903036;29;20567;-78
2023/03/20 01:46:01;;;;;;;33.33;21.33;;;;;;;;;;4902617;29;20179;-77
2023/03/20 01:48:35;;;;;;;28.80;19.00;;;;;;;;;;4902554;29;20284;-78
2023/03/20 01:51:01;;;;;;;32.92;19.17;;;;;;;;;;4885312;29;20242;-78
2023/03/20 01:53:28;;;;;;;33.00;21.13;;;;;;;;;;4886006;29;20211;-77
2023/03/20 01:55:57;;;;;;;27.55;18.58;;;;;;;;;;4885144;29;20430;-78
2023/03/20 01:58:31;;;;;;;29.98;19.92;;;;;;;;;;4902173;29;20179;-77
2023/03/20 02:00:57;;;;;;;33.28;21.73;;;;;;;;;;4885130;29;20186;-77
2023/03/20 02:03:23;;;;;;;29.63;20.90;;;;;;;;;;4902514;29;20397;-78
2023/03/20 02:05:50;;;;;;;27.15;18.80;;;;;;;;;;4902029;29;20190;-78
2023/03/20 02:08:27;;;;;;;29.42;20.02;;;;;;;;;;4869948;29;20181;-78
2023/03/20 02:10:54;;;;;;;26.25;18.20;;;;;;;;;;4902013;29;20179;-78
2023/03/20 02:13:20;;;;;;;24.30;17.27;;;;;;;;;;4885654;29;20210;-78
2023/03/20 02:15:57;;;;;;;29.52;19.33;;;;;;;;;;4902092;29;20182;-78
2023/03/20 02:18:23;;;;;;;31.90;20.30;;;;;;;;;;4902052;29;20183;-78
2023/03/20 02:20:49;;;;;;;34.38;19.55;;;;;;;;;;4885179;29;20190;-78
2023/03/20 02:23:26;;;;;;;30.20;18.40;;;;;;;;;;4901454;29;20215;-78
2023/03/20 02:26:03;;;;;;;27.70;17.48;;;;;;;;;;4901765;29;20411;-78
2023/03/20 02:28:58;;;;;;;28.10;17.60;;;;;;;;;;4901943;29;20590;-78
2023/03/20 02:31:31;;;;;;;28.27;18.15;;;;;;;;;;4885143;29;20250;-78
2023/03/20 02:34:06;;;;;;;28.23;18.20;;;;;;;;;;4901586;29;20229;-78
2023/03/20 02:36:50;;;;;;;29.02;17.67;;;;;;;;;;4884628;29;20762;-78
2023/03/20 02:39:31;;;;;;;27.55;16.17;;;;;;;;;;4901595;29;20186;-77
2023/03/20 02:42:08;;;;;;;30.90;17.15;;;;;;;;;;4884667;29;20198;-78
2023/03/20 02:44:34;;;;;;;25.67;16.50;;;;;;;;;;4885047;29;20235;-78
2023/03/20 02:47:05;;;;;;;29.03;17.00;;;;;;;;;;4901627;29;20648;-78
2023/03/20 02:49:35;;;;;;;28.85;17.77;;;;;;;;;;4901659;29;20459;-78
2023/03/20 02:52:40;;;;;;;29.42;17.00;;;;;;;;;;4901116;29;20175;-78
2023/03/20 02:55:06;;;;;;;25.92;16.40;;;;;;;;;;4843506;29;20273;-78
2023/03/20 02:57:33;;;;;;;30.40;18.55;;;;;;;;;;4843643;29;20206;-77
2023/03/20 03:00:05;;;;;;;30.88;17.92;;;;;;;;;;4870623;29;20226;-78
2023/03/20 03:02:37;;;;;;;24.02;15.88;;;;;;;;;;4901057;29;20195;-78
2023/03/20 03:05:11;;;;;;;31.63;16.15;;;;;;;;;;4901071;29;20278;-78
2023/03/20 03:07:40;;;;;;;27.15;16.92;;;;;;;;;;4901144;29;20178;-77
2023/03/20 03:10:20;;;;;;;29.50;17.20;;;;;;;;;;4900757;29;20182;-77
2023/03/20 03:12:47;;;;;;;25.13;16.95;;;;;;;;;;4900978;29;20282;-79
2023/03/20 03:15:16;;;;;;;28.33;16.13;;;;;;;;;;4901528;29;20221;-78
2023/03/20 03:17:44;;;;;;;32.17;16.90;;;;;;;;;;4901337;29;20186;-77
2023/03/20 03:20:33;;;;;;;26.58;15.30;;;;;;;;;;4901031;29;20218;-78
2023/03/20 03:23:00;;;;;;;28.95;15.45;;;;;;;;;;4892948;29;20195;-78
2023/03/20 03:25:28;;;;;;;23.33;15.23;;;;;;;;;;4901284;29;20178;-78
2023/03/20 03:27:59;;;;;;;21.25;14.65;;;;;;;;;;4900997;29;20191;-78
2023/03/20 03:30:28;;;;;;;29.92;15.10;;;;;;;;;;4900935;29;20175;-78
2023/03/20 03:32:56;;;;;;;24.50;14.30;;;;;;;;;;4900353;29;20663;-78
2023/03/20 03:35:23;;;;;;;22.30;14.80;;;;;;;;;;4900623;29;20317;-78
2023/03/20 03:38:02;;;;;;;26.17;14.77;;;;;;;;;;4900714;29;20175;-78
2023/03/20 03:40:45;;;;;;;22.73;14.98;;;;;;;;;;4900680;29;20210;-78
2023/03/20 03:43:18;;;;;;;28.48;15.35;;;;;;;;;;4900689;29;20246;-78
2023/03/20 03:45:49;;;;;;;22.92;15.23;;;;;;;;;;4900826;29;20175;-77
2023/03/20 03:48:23;;;;;;;23.25;14.63;;;;;;;;;;4901346;29;20178;-78
2023/03/20 03:50:52;;;;;;;26.73;15.48;;;;;;;;;;4900798;29;20189;-78
2023/03/20 03:53:24;;;;;;;26.48;14.95;;;;;;;;;;4900780;29;20237;-77
2023/03/20 03:55:53;;;;;;;26.10;15.75;;;;;;;;;;4900711;29;20175;-78
2023/03/20 03:58:22;;;;;;;21.48;14.40;;;;;;;;;;4901033;29;20589;-77
2023/03/20 04:00:50;;;;;;;26.88;14.70;;;;;;;;;;4900070;29;20175;-81
2023/03/20 04:03:17;;;;;;;29.83;15.73;;;;;;;;;;4887104;29;20213;-77
2023/03/20 04:05:45;;;;;;;23.85;13.90;;;;;;;;;;4904455;29;20616;-77
2023/03/20 04:08:11;;;;;;;29.10;15.30;;;;;;;;;;4904029;29;20178;-78
2023/03/20 04:10:37;;;;;;;23.80;14.40;;;;;;;;;;4904013;29;20290;-78
2023/03/20 04:13:03;;;;;;;23.40;14.07;;;;;;;;;;4886565;29;20191;-77
2023/03/20 04:15:29;;;;;;;24.52;13.48;;;;;;;;;;4904477;29;20407;-77
2023/03/20 04:17:56;;;;;;;28.80;14.18;;;;;;;;;;4904101;29;20187;-77
2023/03/20 04:20:22;;;;;;;19.00;12.75;;;;;;;;;;4887721;29;20185;-77
2023/03/20 04:22:48;;;;;;;21.90;12.93;;;;;;;;;;4904086;29;20203;-77
2023/03/20 04:25:19;;;;;;;30.30;14.07;;;;;;;;;;4903885;29;20197;-78
2023/03/20 04:27:46;;;;;;;26.45;13.10;;;;;;;;;;4887435;29;20185;-78
2023/03/20 04:30:12;;;;;;;27.02;14.07;;;;;;;;;;4903726;29;20195;-78
2023/03/20 04:32:38;;;;;;;23.27;12.88;;;;;;;;;;4903972;29;20265;-77
2023/03/20 04:35:04;;;;;;;21.30;12.37;;;;;;;;;;4903091;29;20669;-78
2023/03/20 04:37:30;;;;;;;26.15;13.60;;;;;;;;;;4886981;29;20432;-78
2023/03/20 04:39:56;;;;;;;22.35;13.05;;;;;;;;;;4903054;29;20684;-78
2023/03/20 04:42:22;;;;;;;20.70;12.13;;;;;;;;;;4904292;29;20184;-78
2023/03/20 04:44:49;;;;;;;20.40;12.13;;;;;;;;;;4904323;29;20434;-78
2023/03/20 04:47:15;;;;;;;24.73;12.00;;;;;;;;;;4903874;29;20583;-78
2023/03/20 04:49:41;;;;;;;20.02;11.55;;;;;;;;;;4904120;29;20185;-78
2023/03/20 04:52:07;;;;;;;21.85;13.25;;;;;;;;;;4903650;29;20221;-78
2023/03/20 04:54:34;;;;;;;21.17;12.90;;;;;;;;;;4903942;29;20217;-78
2023/03/20 04:57:00;;;;;;;20.85;12.68;;;;;;;;;;4903880;29;20206;-77
2023/03/20 04:59:26;;;;;;;19.40;11.20;;;;;;;;;;4887235;29;20175;-77
2023/03/20 05:01:52;;;;;;;21.20;12.30;;;;;;;;;;4903861;29;20446;-81
2023/03/20 05:04:18;;;;;;;22.52;12.32;;;;;;;;;;4871847;29;20430;-77
2023/03/20 05:06:47;;;;;;;23.00;13.53;;;;;;;;;;4886770;29;20269;-77
2023/03/20 05:09:13;;;;;;;19.98;13.15;;;;;;;;;;4915861;29;20434;-78
2023/03/20 05:11:39;;;;;;;20.40;11.55;;;;;;;;;;4905677;29;20181;-78
2023/03/20 05:14:05;;;;;;;23.90;12.97;;;;;;;;;;4921679;29;20580;-77
2023/03/20 05:16:31;;;;;;;16.90;11.02;;;;;;;;;;4922398;29;20412;-78
2023/03/20 05:18:57;;;;;;;19.00;11.20;;;;;;;;;;4922190;29;20290;-78
2023/03/20 05:21:23;;;;;;;20.65;13.23;;;;;;;;;;4922079;29;20182;-78
2023/03/20 05:23:49;;;;;;;19.92;10.43;;;;;;;;;;4904963;29;20182;-78
2023/03/20 05:26:15;;;;;;;25.15;12.70;;;;;;;;;;4904473;29;20175;-77
2023/03/20 05:28:41;;;;;;;19.45;12.30;;;;;;;;;;4921870;29;20530;-78
2023/03/20 05:31:07;;;;;;;27.58;12.60;;;;;;;;;;4921319;29;20178;-78
2023/03/20 05:33:33;;;;;;;26.17;13.55;;;;;;;;;;4921476;29;20266;-77
2023/03/20 05:35:59;;;;;;;21.20;12.95;;;;;;;;;;4921624;29;20233;-78
2023/03/20 05:38:26;;;;;;;20.20;12.47;;;;;;;;;;4904242;29;20546;-78
2023/03/20 05:40:58;;;;;;;20.08;11.30;;;;;;;;;;4905171;29;20410;-77
2023/03/20 05:43:24;;;;;;;19.92;11.38;;;;;;;;;;4921534;29;20654;-78
2023/03/20 05:45:50;;;;;;;19.27;11.27;;;;;;;;;;4905074;29;20183;-78
2023/03/20 05:48:16;;;;;;;17.55;11.30;;;;;;;;;;4921472;29;20229;-78
2023/03/20 05:50:42;;;;;;;21.45;11.80;;;;;;;;;;4921603;29;20178;-78
2023/03/20 05:53:08;;;;;;;20.03;12.43;;;;;;;;;;4921794;29;20627;-77
2023/03/20 05:55:34;;;;;;;23.03;12.03;;;;;;;;;;4921783;29;20477;-78
2023/03/20 05:58:01;;;;;;;24.27;11.70;;;;;;;;;;4904687;29;20506;-78
2023/03/20 06:00:27;;;;;;;24.85;11.63;;;;;;;;;;4922343;29;20193;-78
2023/03/20 06:02:53;;;;;;;19.13;11.27;;;;;;;;;;4904818;29;20187;-78
2023/03/20 06:05:19;;;;;;;20.60;13.00;;;;;;;;;;4904572;29;20280;-78
2023/03/20 06:07:45;;;;;;;24.10;13.80;;;;;;;;;;4921699;29;20595;-78
2023/03/20 06:10:11;;;;;;;25.60;12.98;;;;;;;;;;4888431;29;20181;-78
2023/03/20 06:12:37;;;;;;;22.35;13.30;;;;;;;;;;4904712;29;20285;-77
2023/03/20 06:15:04;;;;;;;26.27;14.52;;;;;;;;;;4921139;29;20237;-78
2023/03/20 06:17:30;;;;;;;24.20;13.65;;;;;;;;;;4920482;29;20518;-77
2023/03/20 06:19:56;;;;;;;25.23;13.93;;;;;;;;;;4903471;29;20639;-81
2023/03/20 06:22:22;;;;;;;22.90;13.85;;;;;;;;;;4920974;29;20205;-78
2023/03/20 06:24:48;;;;;;;19.07;13.13;;;;;;;;;;4920605;29;20214;-78
2023/03/20 06:27:14;;;;;;;26.02;13.65;;;;;;;;;;4920808;29;20441;-78
2023/03/20 06:29:40;;;;;;;24.75;13.80;;;;;;;;;;4921011;29;20214;-78
2023/03/20 06:32:08;;;;;;;26.40;16.20;;;;;;;;;;4920683;29;20529;-77
2023/03/20 06:34:34;;;;;;;30.25;16.10;;;;;;;;;;4920482;29;20276;-78
2023/03/20 06:37:00;;;;;;;26.85;16.35;;;;;;;;;;4920480;29;20766;-78
2023/03/20 06:39:27;;;;;;;27.05;16.20;;;;;;;;;;4920862;29;20182;-78
2023/03/20 06:41:53;;;;;;;34.03;16.45;;;;;;;;;;4921502;29;20230;-78
2023/03/20 06:44:20;;;;;;;23.70;15.23;;;;;;;;;;4919970;29;20265;-78
2023/03/20 06:46:46;;;;;;;27.80;17.30;;;;;;;;;;4920292;29;20186;-78
2023/03/20 06:49:12;;;;;;;30.52;16.50;;;;;;;;;;4902824;29;20280;-77
2023/03/20 06:51:38;;;;;;;24.13;15.60;;;;;;;;;;4903846;29;20660;-77
2023/03/20 06:54:04;;;;;;;24.55;15.57;;;;;;;;;;4903397;29;20265;-78
2023/03/20 06:56:31;;;;;;;26.90;16.50;;;;;;;;;;4903538;29;20189;-78
2023/03/20 06:58:57;;;;;;;25.95;15.63;;;;;;;;;;4920330;29;20183;-78
2023/03/20 07:01:23;;;;;;;23.50;15.93;;;;;;;;;;4920441;29;20217;-78
2023/03/20 07:03:49;;;;;;;24.65;14.95;;;;;;;;;;4920021;29;20980;-78
2023/03/20 07:06:17;;;;;;;21.10;12.50;;;;;;;;;;4887584;29;20647;-78
2023/03/20 07:08:43;;;;;;;27.55;15.52;;;;;;;;;;4920559;29;20639;-78
2023/03/20 07:11:09;;;;;;;20.23;12.60;;;;;;;;;;4919560;29;20186;-78
2023/03/20 07:13:35;;;;;;;23.60;12.90;;;;;;;;;;4902968;29;20713;-78
2023/03/20 07:16:02;;;;;;;22.90;12.95;;;;;;;;;;4902970;29;20265;-78
2023/03/20 07:18:28;;;;;;;19.30;12.35;;;;;;;;;;4920155;29;20228;-78
2023/03/20 07:20:57;;;;;;;19.00;11.88;;;;;;;;;;4909073;29;20589;-77
2023/03/20 07:23:23;;;;;;;14.25;10.27;;;;;;;;;;4884228;29;20272;-77
2023/03/20 07:25:50;;;;;;;18.80;10.70;;;;;;;;;;4884443;29;20194;-77
2023/03/20 07:28:16;;;;;;;18.00;10.20;;;;;;;;;;4900841;29;20267;-78
2023/03/20 07:30:42;;;;;;;29.30;10.97;;;;;;;;;;4900450;29;20214;-78
2023/03/20 07:33:09;;;;;;;14.70;9.68;;;;;;;;;;4901051;29;20424;-78
2023/03/20 07:35:35;;;;;;;11.75;9.27;;;;;;;;;;4900676;29;20584;-77
2023/03/20 07:38:01;;;;;;;15.02;10.02;;;;;;;;;;4899363;29;20594;-81
2023/03/20 07:40:27;;;;;;;15.52;9.88;;;;;;;;;;4900997;29;20190;-78
2023/03/20 07:42:53;;;;;;;14.52;8.75;;;;;;;;;;4899370;29;20194;-78
2023/03/20 07:45:19;;;;;;;21.90;9.20;;;;;;;;;;4899949;29;20194;-78
2023/03/20 07:47:47;;;;;;;12.85;8.68;;;;;;;;;;4900069;29;20439;-78
2023/03/20 07:50:13;;;;;;;15.18;9.70;;;;;;;;;;4900570;29;20167;-78
2023/03/20 07:52:39;;;;;;;13.63;8.85;;;;;;;;;;4899773;29;20191;-78
2023/03/20 07:55:06;;;;;;;16.73;8.80;;;;;;;;;;4899377;29;20217;-78
2023/03/20 07:57:32;;;;;;;14.52;8.32;;;;;;;;;;4900075;29;20212;-78
2023/03/20 07:59:58;;;;;;;10.55;6.88;;;;;;;;;;4901746;29;20190;-77
2023/03/20 08:02:24;;;;;;;15.98;7.80;;;;;;;;;;4919085;29;20265;-77
2023/03/20 08:04:50;;;;;;;8.70;6.10;;;;;;;;;;4902271;29;20281;-77
2023/03/20 08:07:16;;;;;;;8.97;7.00;;;;;;;;;;4919156;29;20217;-77
2023/03/20 08:09:42;;;;;;;9.45;6.60;;;;;;;;;;4919365;29;20474;-78
2023/03/20 08:12:08;;;;;;;11.57;7.17;;;;;;;;;;4919077;29;20178;-77
2023/03/20 08:14:37;;;;;;;12.43;7.30;;;;;;;;;;4902745;29;20998;-78
2023/03/20 08:17:03;;;;;;;9.98;6.95;;;;;;;;;;4919158;29;20186;-81
2023/03/20 08:19:29;;;;;;;16.88;6.97;;;;;;;;;;4919633;29;20261;-78
2023/03/20 08:21:55;;;;;;;9.43;6.40;;;;;;;;;;4919473;29;20206;-79
2023/03/20 08:24:21;;;;;;;11.60;6.83;;;;;;;;;;4918134;29;20422;-85
2023/03/20 08:26:47;;;;;;;10.85;6.38;;;;;;;;;;4917530;29;20411;-86
2023/03/20 08:29:16;;;;;;;11.10;7.40;;;;;;;;;;4916693;29;20186;-85
2023/03/20 08:31:42;;;;;;;8.90;6.25;;;;;;;;;;4917506;29;20178;-84
2023/03/20 08:34:08;;;;;;;16.52;7.30;;;;;;;;;;4919617;29;20217;-76
2023/03/20 08:36:34;;;;;;;10.87;7.17;;;;;;;;;;4915746;29;20238;-75
2023/03/20 08:39:00;;;;;;;12.63;7.13;;;;;;;;;;4908569;29;20415;-76
2023/03/20 08:41:26;;;;;;;14.23;7.13;;;;;;;;;;4902525;29;20473;-76
2023/03/20 08:43:52;;;;;;;12.80;7.57;;;;;;;;;;4902325;29;20196;-76
2023/03/20 08:46:18;;;;;;;14.43;7.50;;;;;;;;;;4919566;29;20699;-75
2023/03/20 08:48:44;;;;;;;10.38;6.43;;;;;;;;;;4921528;29;20476;-75
2023/03/20 08:51:10;;;;;;;10.83;7.53;;;;;;;;;;4922735;29;20264;-76
2023/03/20 08:53:36;;;;;;;10.93;7.80;;;;;;;;;;4923150;29;20473;-75
2023/03/20 08:56:02;;;;;;;18.13;9.00;;;;;;;;;;4922190;29;20182;-75
2023/03/20 08:58:28;;;;;;;15.45;8.45;;;;;;;;;;4922711;29;20493;-76
2023/03/20 09:00:54;;;;;;;12.73;7.78;;;;;;;;;;4922023;29;20209;-76
2023/03/20 09:03:20;;;;;;;14.38;8.50;;;;;;;;;;4921767;29;20178;-77
2023/03/20 09:05:47;;;;;;;15.00;9.30;;;;;;;;;;4892616;29;20695;-76
2023/03/20 09:08:13;;;;;;;13.43;7.85;;;;;;;;;;4895452;29;20597;-76
2023/03/20 09:10:40;;;;;;;12.82;8.52;;;;;;;;;;4903489;29;20598;-77
2023/03/20 09:13:06;;;;;;;13.20;8.27;;;;;;;;;;4921726;29;20181;-79
2023/03/20 09:15:32;;;;;;;16.98;10.48;;;;;;;;;;4922482;29;20631;-76
2023/03/20 09:17:58;;;;;;;15.55;9.60;;;;;;;;;;4905859;29;20182;-76
2023/03/20 09:20:24;;;;;;;18.58;9.77;;;;;;;;;;4922304;29;20217;-77
2023/03/20 09:22:50;;;;;;;15.05;9.40;;;;;;;;;;4922633;29;20174;-76
2023/03/20 09:25:16;;;;;;;16.63;9.70;;;;;;;;;;4922086;29;20190;-77
2023/03/20 09:27:42;;;;;;;17.83;9.70;;;;;;;;;;4922042;29;20475;-77
2023/03/20 09:30:09;;;;;;;19.55;11.48;;;;;;;;;;4916168;29;20419;-77
2023/03/20 09:32:35;;;;;;;20.05;10.43;;;;;;;;;;4911914;29;20177;-77
2023/03/20 09:35:02;;;;;;;18.53;11.30;;;;;;;;;;4912956;29;20224;-77
2023/03/20 09:37:28;;;;;;;23.40;9.20;;;;;;;;;;4922456;29;20506;-77
2023/03/20 09:39:54;;;;;;;15.02;9.48;;;;;;;;;;4921550;29;20186;-77
2023/03/20 09:42:26;;;;;;;13.82;8.05;;;;;;;;;;4921722;29;20185;-77
2023/03/20 09:44:57;;;;;;;13.30;8.68;;;;;;;;;;4909536;29;20534;-76
2023/03/20 09:47:45;;;;;;;13.85;7.53;;;;;;;;;;4902714;29;20187;-75
2023/03/20 09:50:21;;;;;;;12.32;7.82;;;;;;;;;;4901810;29;20541;-76
2023/03/20 09:52:53;;;;;;;12.63;6.38;;;;;;;;;;4903168;29;20177;-76
2023/03/20 09:55:21;;;;;;;13.27;6.13;;;;;;;;;;4902892;29;20217;-75
2023/03/20 09:57:48;;;;;;;12.30;7.05;;;;;;;;;;4902716;29;20182;-75
2023/03/20 10:00:17;;;;;;;10.35;5.55;;;;;;;;;;4901294;29;20194;-76
2023/03/20 10:02:50;;;;;;;10.65;5.60;;;;;;;;;;4902468;29;20183;-76
2023/03/20 10:05:26;;;;;;;8.70;5.32;;;;;;;;;;4902179;29;20194;-76
2023/03/20 10:07:56;;;;;;;9.35;5.18;;;;;;;;;;4903022;29;20183;-76
2023/03/20 10:10:27;;;;;;;9.20;5.20;;;;;;;;;;4902525;29;20253;-76
2023/03/20 10:13:06;;;;;;;6.30;4.20;;;;;;;;;;4902504;29;20164;-76
2023/03/20 10:15:50;;;;;;;9.75;4.32;;;;;;;;;;4902359;29;20198;-76
2023/03/20 10:18:27;;;;;;;7.97;3.65;;;;;;;;;;4902811;29;20179;-76
2023/03/20 10:20:55;;;;;;;9.38;3.97;;;;;;;;;;4902574;29;20202;-76
2023/03/20 10:23:33;;;;;;;7.60;3.65;;;;;;;;;;4901888;29;20174;-76
2023/03/20 10:26:02;;;;;;;12.00;4.00;;;;;;;;;;4902858;29;20226;-76
2023/03/20 10:28:41;;;;;;;7.93;3.03;;;;;;;;;;4901435;29;20586;-76
2023/03/20 10:31:19;;;;;;;5.72;2.70;;;;;;;;;;4902403;29;20178;-76
2023/03/20 10:34:07;;;;;;;7.25;2.42;;;;;;;;;;4902501;29;20211;-76
2023/03/20 10:36:38;;;;;;;5.35;2.60;;;;;;;;;;4901712;29;20249;-76
2023/03/20 10:39:05;;;;;;;4.78;2.63;;;;;;;;;;4903129;29;20197;-76
2023/03/20 10:41:36;;;;;;;6.60;2.95;;;;;;;;;;4902172;29;20174;-76
2023/03/20 10:44:02;;;;;;;4.22;2.30;;;;;;;;;;4885331;29;20243;-76
2023/03/20 10:46:31;;;;;;;9.65;3.45;;;;;;;;;;4901661;29;20590;-76
2023/03/20 10:48:57;;;;;;;8.50;3.10;;;;;;;;;;4884941;29;20187;-75
2023/03/20 10:51:26;;;;;;;4.60;3.10;;;;;;;;;;4901670;29;20179;-76
2023/03/20 10:53:55;;;;;;;4.93;3.05;;;;;;;;;;4901756;29;20482;-76
2023/03/20 10:56:35;;;;;;;5.93;2.85;;;;;;;;;;4901189;29;20204;-76
2023/03/20 10:59:17;;;;;;;7.55;3.95;;;;;;;;;;4884618;29;20175;-76
2023/03/20 11:01:43;;;;;;;10.88;3.28;;;;;;;;;;4901239;29;20202;-75
2023/03/20 11:04:09;;;;;;;10.30;3.53;;;;;;;;;;4901901;29;20186;-75
2023/03/20 11:06:47;;;;;;;7.70;4.57;;;;;;;;;;4901015;29;20239;-75
2023/03/20 11:09:20;;;;;;;12.43;3.67;;;;;;;;;;4901056;29;20711;-77
2023/03/20 11:11:47;;;;;;;8.05;3.42;;;;;;;;;;4901498;29;20186;-76
2023/03/20 11:14:18;;;;;;;4.55;3.05;;;;;;;;;;4901082;29;20798;-78
2023/03/20 11:16:48;;;;;;;6.93;3.78;;;;;;;;;;4901474;29;20183;-76
2023/03/20 11:19:14;;;;;;;6.75;2.85;;;;;;;;;;4901584;29;20250;-78
2023/03/20 11:21:48;;;;;;;7.13;2.90;;;;;;;;;;4902161;29;20178;-76
2023/03/20 11:24:23;;;;;;;7.47;2.95;;;;;;;;;;4901047;29;20189;-77
2023/03/20 11:26:50;;;;;;;5.75;3.03;;;;;;;;;;4902183;29;20184;-76
2023/03/20 11:29:26;;;;;;;8.15;3.70;;;;;;;;;;4901343;29;20179;-76
2023/03/20 11:31:52;;;;;;;6.72;3.30;;;;;;;;;;4901622;29;20182;-75
2023/03/20 11:34:18;;;;;;;12.05;3.00;;;;;;;;;;4901198;29;20266;-76
2023/03/20 11:36:54;;;;;;;9.53;2.73;;;;;;;;;;4884179;29;20647;-75
2023/03/20 11:39:25;;;;;;;8.55;3.03;;;;;;;;;;4901505;29;20395;-76
2023/03/20 11:41:52;;;;;;;7.93;3.00;;;;;;;;;;4901408;29;20650;-76
2023/03/20 11:44:21;;;;;;;6.80;3.00;;;;;;;;;;4901139;29;20187;-76
2023/03/20 11:46:55;;;;;;;4.60;2.28;;;;;;;;;;4901419;29;20178;-75
2023/03/20 11:49:23;;;;;;;6.65;3.35;;;;;;;;;;4901582;29;20182;-75
2023/03/20 11:51:50;;;;;;;5.75;2.53;;;;;;;;;;4901894;29;20187;-75
2023/03/20 11:54:21;;;;;;;7.63;2.63;;;;;;;;;;4901273;29;20226;-78
2023/03/20 11:56:52;;;;;;;7.25;2.75;;;;;;;;;;4901504;29;20230;-75
2023/03/20 11:59:18;;;;;;;6.78;3.22;;;;;;;;;;4901776;29;20636;-76
2023/03/20 12:01:51;;;;;;;6.38;3.63;;;;;;;;;;4901622;29;20563;-75
2023/03/20 12:04:19;;;;;;;9.73;2.65;;;;;;;;;;4901224;29;20235;-76
2023/03/20 12:06:57;;;;;;;10.80;3.67;;;;;;;;;;4901644;29;20213;-75
2023/03/20 12:09:30;;;;;;;6.72;3.17;;;;;;;;;;4901329;29;20557;-76
2023/03/20 12:11:59;;;;;;;7.90;3.33;;;;;;;;;;4902094;29;20648;-75
2023/03/20 12:14:42;;;;;;;9.02;4.03;;;;;;;;;;4901039;29;20324;-75
2023/03/20 12:17:14;;;;;;;8.70;3.08;;;;;;;;;;4884448;29;20187;-75
2023/03/20 12:19:41;;;;;;;5.93;3.25;;;;;;;;;;4901217;29;20175;-75
2023/03/20 12:22:14;;;;;;;3.85;2.70;;;;;;;;;;4884915;29;20198;-75
2023/03/20 12:24:43;;;;;;;5.75;2.42;;;;;;;;;;4904891;29;20183;-75
2023/03/20 12:27:34;;;;;;;5.20;2.50;;;;;;;;;;4905136;29;20171;-75
2023/03/20 12:30:05;;;;;;;8.07;2.67;;;;;;;;;;4905159;29;20182;-75
2023/03/20 12:32:50;;;;;;;2.00;1.80;;;;;;;;;;4904919;29;20190;-75
2023/03/20 12:35:33;;;;;;;5.07;2.80;;;;;;;;;;4887908;29;20783;-75
2023/03/20 12:37:59;;;;;;;6.22;3.00;;;;;;;;;;4904772;29;20674;-75
2023/03/20 12:40:32;;;;;;;4.57;2.80;;;;;;;;;;4888363;29;20191;-76
2023/03/20 12:43:12;;;;;;;5.72;2.20;;;;;;;;;;4905089;29;20189;-75
2023/03/20 12:45:40;;;;;;;5.60;3.20;;;;;;;;;;4904648;29;20175;-76
2023/03/20 12:48:17;;;;;;;5.03;2.92;;;;;;;;;;4904901;29;20222;-76
2023/03/20 12:50:49;;;;;;;6.70;2.97;;;;;;;;;;4904436;29;20175;-76
2023/03/20 12:53:18;;;;;;;8.88;3.10;;;;;;;;;;4904188;29;20182;-76
2023/03/20 12:56:00;;;;;;;5.97;2.70;;;;;;;;;;4904316;29;20175;-76
2023/03/20 12:58:38;;;;;;;6.88;2.88;;;;;;;;;;4904143;29;20675;-76
2023/03/20 13:01:12;;;;;;;4.93;2.13;;;;;;;;;;4887502;29;20276;-76
2023/03/20 13:03:43;;;;;;;5.35;2.83;;;;;;;;;;4903978;29;20175;-76
2023/03/20 13:06:21;;;;;;;3.65;2.10;;;;;;;;;;4904346;29;20190;-76
2023/03/20 13:08:47;;;;;;;5.45;2.75;;;;;;;;;;4904426;29;20182;-76
2023/03/20 13:11:20;;;;;;;10.65;3.05;;;;;;;;;;4904438;29;20190;-76
2023/03/20 13:13:54;;;;;;;5.72;2.75;;;;;;;;;;4887954;29;20219;-76
2023/03/20 13:16:29;;;;;;;3.60;2.45;;;;;;;;;;4904061;29;20199;-79
2023/03/20 13:19:22;;;;;;;6.18;2.47;;;;;;;;;;4904384;29;20183;-76
2023/03/20 13:21:56;;;;;;;5.95;2.70;;;;;;;;;;4902454;29;20277;-76
2023/03/20 13:24:30;;;;;;;4.95;2.40;;;;;;;;;;4903703;29;20175;-77
2023/03/20 13:27:11;;;;;;;3.22;1.90;;;;;;;;;;4886950;29;20273;-77
2023/03/20 13:29:43;;;;;;;5.95;2.15;;;;;;;;;;4903494;29;20171;-76
2023/03/20 13:32:15;;;;;;;7.05;2.30;;;;;;;;;;4903453;29;20532;-77
2023/03/20 13:34:49;;;;;;;4.65;2.45;;;;;;;;;;4901967;29;20202;-76
2023/03/20 13:37:25;;;;;;;6.25;2.65;;;;;;;;;;4903403;29;20230;-77
2023/03/20 13:40:04;;;;;;;7.45;2.40;;;;;;;;;;4903689;29;20174;-77
2023/03/20 13:42:34;;;;;;;8.02;2.55;;;;;;;;;;4903471;29;20195;-76
2023/03/20 13:45:05;;;;;;;4.37;2.50;;;;;;;;;;4886258;29;20223;-77
2023/03/20 13:47:32;;;;;;;8.65;2.95;;;;;;;;;;4902851;29;20766;-76
2023/03/20 13:50:11;;;;;;;5.30;2.80;;;;;;;;;;4903404;29;20543;-77
2023/03/20 13:52:41;;;;;;;6.15;2.50;;;;;;;;;;4902859;29;20179;-76
2023/03/20 13:55:22;;;;;;;8.93;2.72;;;;;;;;;;4903502;29;20219;-76
2023/03/20 13:57:58;;;;;;;5.10;2.40;;;;;;;;;;4903363;29;20186;-76
2023/03/20 14:00:37;;;;;;;4.57;2.23;;;;;;;;;;4902552;29;20238;-78
2023/03/20 14:03:12;;;;;;;9.73;2.95;;;;;;;;;;4903818;29;20415;-76
2023/03/20 14:05:39;;;;;;;7.90;2.72;;;;;;;;;;4902735;29;20190;-77
2023/03/20 14:08:22;;;;;;;6.50;2.47;;;;;;;;;;4902804;29;20191;-76
2023/03/20 14:10:48;;;;;;;8.00;2.50;;;;;;;;;;4902645;29;20178;-76
2023/03/20 14:13:17;;;;;;;11.57;2.60;;;;;;;;;;4903168;29;20183;-76
2023/03/20 14:15:53;;;;;;;7.45;2.40;;;;;;;;;;4885763;29;20676;-76
2023/03/20 14:18:21;;;;;;;7.47;2.85;;;;;;;;;;4902611;29;20230;-76
2023/03/20 14:20:55;;;;;;;5.72;2.72;;;;;;;;;;4902949;29;20264;-76
2023/03/20 14:23:28;;;;;;;7.77;2.67;;;;;;;;;;4902429;29;20542;-76
2023/03/20 14:25:54;;;;;;;6.00;2.15;;;;;;;;;;4902966;29;20403;-77
2023/03/20 14:28:20;;;;;;;2.80;1.73;;;;;;;;;;4902413;29;20622;-76
2023/03/20 14:30:50;;;;;;;6.80;2.35;;;;;;;;;;4902367;29;20640;-77
2023/03/20 14:33:16;;;;;;;5.93;2.38;;;;;;;;;;4902722;29;20194;-77
2023/03/20 14:35:42;;;;;;;5.50;1.90;;;;;;;;;;4902073;29;20226;-76
2023/03/20 14:38:25;;;;;;;6.93;2.50;;;;;;;;;;4902398;29;20490;-76
2023/03/20 14:41:10;;;;;;;5.00;2.03;;;;;;;;;;4902702;29;20412;-76